sensor_id;sensor_type;location;lat;lon;timestamp;temperature;humidity
37408;DHT22;24866;50.248;8.252;2023-04-24T00:00:35;10.30;99.90
37408;DHT22;24866;50.248;8.252;2023-04-24T00:03:06;10.30;99.90
37408;DHT22;24866;50.248;8.252;2023-04-24T00:05:38;10.30;99.90
37408;DHT22;24866;50.248;8.252;2023-04-24T00:08:08;10.30;99.90
37408;DHT22;24866;50.248;8.252;2023-04-24T00:10:38;10.30;99.90
37408;DHT22;24866;50.248;8.252;2023-04-24T00:13:08;10.30;99.90
37408;DHT22;24866;50.248;8.252;2023-04-24T00:15:38;10.20;99.90
37408;DHT22;24866;50.248;8.252;2023-04-24T00:18:09;10.20;99.90
37408;DHT22;24866;50.248;8.252;2023-04-24T00:20:40;10.30;99.90
37408;DHT22;24866;50.248;8.252;2023-04-24T00:23:12;10.30;99.90
37408;DHT22;24866;50.248;8.252;2023-04-24T00:25:42;10.20;99.90
37408;DHT22;24866;50.248;8.252;2023-04-24T00:28:12;10.20;99.90
37408;DHT22;24866;50.248;8.252;2023-04-24T00:30:42;10.10;99.90
37408;DHT22;24866;50.248;8.252;2023-04-24T00:33:12;10.20;99.90
37408;DHT22;24866;50.248;8.252;2023-04-24T00:35:43;10.20;99.90
37408;DHT22;24866;50.248;8.252;2023-04-24T00:38:13;10.20;99.90
37408;DHT22;24866;50.248;8.252;2023-04-24T00:40:43;10.10;99.90
37408;DHT22;24866;50.248;8.252;2023-04-24T00:43:13;10.00;99.90
37408;DHT22;24866;50.248;8.252;2023-04-24T00:45:45;10.00;99.90
37408;DHT22;24866;50.248;8.252;2023-04-24T00:48:16;9.90;99.90
37408;DHT22;24866;50.248;8.252;2023-04-24T00:50:48;9.90;99.90
37408;DHT22;24866;50.248;8.252;2023-04-24T00:53:18;9.80;99.90
37408;DHT22;24866;50.248;8.252;2023-04-24T00:55:48;9.70;99.90
37408;DHT22;24866;50.248;8.252;2023-04-24T00:58:18;9.80;99.90
37408;DHT22;24866;50.248;8.252;2023-04-24T01:00:50;9.80;99.90
37408;DHT22;24866;50.248;8.252;2023-04-24T01:03:22;9.80;99.90
37408;DHT22;24866;50.248;8.252;2023-04-24T01:05:56;9.80;99.90
37408;DHT22;24866;50.248;8.252;2023-04-24T01:08:26;9.90;99.90
37408;DHT22;24866;50.248;8.252;2023-04-24T01:10:58;9.90;99.90
37408;DHT22;24866;50.248;8.252;2023-04-24T01:13:28;9.90;99.90
37408;DHT22;24866;50.248;8.252;2023-04-24T01:15:57;9.90;99.90
37408;DHT22;24866;50.248;8.252;2023-04-24T01:18:28;9.90;99.90
37408;DHT22;24866;50.248;8.252;2023-04-24T01:20:59;9.90;99.90
37408;DHT22;24866;50.248;8.252;2023-04-24T01:23:34;9.90;99.90
37408;DHT22;24866;50.248;8.252;2023-04-24T01:26:05;9.90;99.90
37408;DHT22;24866;50.248;8.252;2023-04-24T01:28:36;9.90;99.90
37408;DHT22;24866;50.248;8.252;2023-04-24T01:31:06;9.90;99.90
37408;DHT22;24866;50.248;8.252;2023-04-24T01:33:36;9.90;99.90
37408;DHT22;24866;50.248;8.252;2023-04-24T01:36:06;9.80;99.90
37408;DHT22;24866;50.248;8.252;2023-04-24T01:38:38;9.80;99.90
37408;DHT22;24866;50.248;8.252;2023-04-24T01:41:08;9.80;99.90
37408;DHT22;24866;50.248;8.252;2023-04-24T01:43:38;9.80;99.90
37408;DHT22;24866;50.248;8.252;2023-04-24T01:46:09;9.70;99.90
37408;DHT22;24866;50.248;8.252;2023-04-24T01:48:39;9.70;99.90
37408;DHT22;24866;50.248;8.252;2023-04-24T01:51:09;9.70;99.90
37408;DHT22;24866;50.248;8.252;2023-04-24T01:53:40;9.70;99.90
37408;DHT22;24866;50.248;8.252;2023-04-24T01:56:10;9.70;99.90
37408;DHT22;24866;50.248;8.252;2023-04-24T01:58:41;9.70;99.90
37408;DHT22;24866;50.248;8.252;2023-04-24T02:01:15;9.60;99.90
37408;DHT22;24866;50.248;8.252;2023-04-24T02:03:47;9.60;99.90
37408;DHT22;24866;50.248;8.252;2023-04-24T02:06:17;9.60;99.90
37408;DHT22;24866;50.248;8.252;2023-04-24T02:08:48;9.60;99.90
37408;DHT22;24866;50.248;8.252;2023-04-24T02:11:18;9.60;99.90
37408;DHT22;24866;50.248;8.252;2023-04-24T02:13:48;9.60;99.90
37408;DHT22;24866;50.248;8.252;2023-04-24T02:16:19;9.60;99.90
37408;DHT22;24866;50.248;8.252;2023-04-24T02:18:49;9.60;99.90
37408;DHT22;24866;50.248;8.252;2023-04-24T02:21:18;9.60;99.90
37408;DHT22;24866;50.248;8.252;2023-04-24T02:23:50;9.60;99.90
37408;DHT22;24866;50.248;8.252;2023-04-24T02:26:20;9.60;99.90
37408;DHT22;24866;50.248;8.252;2023-04-24T02:28:49;9.50;99.90
37408;DHT22;24866;50.248;8.252;2023-04-24T02:31:20;9.50;99.90
37408;DHT22;24866;50.248;8.252;2023-04-24T02:33:49;9.50;99.90
37408;DHT22;24866;50.248;8.252;2023-04-24T02:36:19;9.50;99.90
37408;DHT22;24866;50.248;8.252;2023-04-24T02:38:51;9.50;99.90
37408;DHT22;24866;50.248;8.252;2023-04-24T02:41:21;9.50;99.90
37408;DHT22;24866;50.248;8.252;2023-04-24T02:43:52;9.40;99.90
37408;DHT22;24866;50.248;8.252;2023-04-24T02:46:23;9.40;99.90
37408;DHT22;24866;50.248;8.252;2023-04-24T02:48:53;9.50;99.90
37408;DHT22;24866;50.248;8.252;2023-04-24T02:51:23;9.50;99.90
37408;DHT22;24866;50.248;8.252;2023-04-24T02:53:55;9.40;99.90
37408;DHT22;24866;50.248;8.252;2023-04-24T02:56:25;9.40;99.90
37408;DHT22;24866;50.248;8.252;2023-04-24T02:58:55;9.30;99.90
37408;DHT22;24866;50.248;8.252;2023-04-24T03:01:24;9.30;99.90
37408;DHT22;24866;50.248;8.252;2023-04-24T03:03:54;9.30;99.90
37408;DHT22;24866;50.248;8.252;2023-04-24T03:06:28;9.20;99.90
37408;DHT22;24866;50.248;8.252;2023-04-24T03:09:01;9.20;99.90
37408;DHT22;24866;50.248;8.252;2023-04-24T03:11:32;9.20;99.90
37408;DHT22;24866;50.248;8.252;2023-04-24T03:14:02;9.30;99.90
37408;DHT22;24866;50.248;8.252;2023-04-24T03:16:32;9.20;99.90
37408;DHT22;24866;50.248;8.252;2023-04-24T03:19:02;9.20;99.90
37408;DHT22;24866;50.248;8.252;2023-04-24T03:21:32;9.20;99.90
37408;DHT22;24866;50.248;8.252;2023-04-24T03:24:05;9.10;99.90
37408;DHT22;24866;50.248;8.252;2023-04-24T03:26:35;9.10;99.90
37408;DHT22;24866;50.248;8.252;2023-04-24T03:29:05;9.10;99.90
37408;DHT22;24866;50.248;8.252;2023-04-24T03:31:35;9.10;99.90
37408;DHT22;24866;50.248;8.252;2023-04-24T03:34:05;9.10;99.90
37408;DHT22;24866;50.248;8.252;2023-04-24T03:36:35;9.10;99.90
37408;DHT22;24866;50.248;8.252;2023-04-24T03:39:06;9.10;99.90
37408;DHT22;24866;50.248;8.252;2023-04-24T03:41:36;9.10;99.90
37408;DHT22;24866;50.248;8.252;2023-04-24T03:44:06;9.00;99.90
37408;DHT22;24866;50.248;8.252;2023-04-24T03:46:35;8.90;99.90
37408;DHT22;24866;50.248;8.252;2023-04-24T03:49:05;8.90;99.90
37408;DHT22;24866;50.248;8.252;2023-04-24T03:51:35;8.80;99.90
37408;DHT22;24866;50.248;8.252;2023-04-24T03:54:06;8.80;99.90
37408;DHT22;24866;50.248;8.252;2023-04-24T03:56:36;8.70;99.90
37408;DHT22;24866;50.248;8.252;2023-04-24T03:59:06;8.60;99.90
37408;DHT22;24866;50.248;8.252;2023-04-24T04:01:36;8.60;99.90
37408;DHT22;24866;50.248;8.252;2023-04-24T04:04:07;8.60;99.90
37408;DHT22;24866;50.248;8.252;2023-04-24T04:06:41;8.50;99.90
37408;DHT22;24866;50.248;8.252;2023-04-24T04:09:12;8.50;99.90
37408;DHT22;24866;50.248;8.252;2023-04-24T04:11:42;8.40;99.90
37408;DHT22;24866;50.248;8.252;2023-04-24T04:14:12;8.30;99.90
37408;DHT22;24866;50.248;8.252;2023-04-24T04:16:42;8.30;99.90
37408;DHT22;24866;50.248;8.252;2023-04-24T04:19:12;8.40;99.90
37408;DHT22;24866;50.248;8.252;2023-04-24T04:21:41;8.40;99.90
37408;DHT22;24866;50.248;8.252;2023-04-24T04:24:13;8.40;99.90
37408;DHT22;24866;50.248;8.252;2023-04-24T04:26:43;8.30;99.90
37408;DHT22;24866;50.248;8.252;2023-04-24T04:29:14;8.20;99.90
37408;DHT22;24866;50.248;8.252;2023-04-24T04:31:44;8.20;99.90
37408;DHT22;24866;50.248;8.252;2023-04-24T04:34:14;8.10;99.90
37408;DHT22;24866;50.248;8.252;2023-04-24T04:36:44;8.20;99.90
37408;DHT22;24866;50.248;8.252;2023-04-24T04:39:16;8.00;99.90
37408;DHT22;24866;50.248;8.252;2023-04-24T04:41:47;8.10;99.90
37408;DHT22;24866;50.248;8.252;2023-04-24T04:44:17;8.10;99.90
37408;DHT22;24866;50.248;8.252;2023-04-24T04:46:47;8.10;99.90
37408;DHT22;24866;50.248;8.252;2023-04-24T04:49:17;8.10;99.90
37408;DHT22;24866;50.248;8.252;2023-04-24T04:51:47;8.10;99.90
37408;DHT22;24866;50.248;8.252;2023-04-24T04:54:18;8.10;99.90
37408;DHT22;24866;50.248;8.252;2023-04-24T04:56:49;8.00;99.90
37408;DHT22;24866;50.248;8.252;2023-04-24T04:59:19;8.00;99.90
37408;DHT22;24866;50.248;8.252;2023-04-24T05:01:50;8.10;99.90
37408;DHT22;24866;50.248;8.252;2023-04-24T05:04:20;8.10;99.90
37408;DHT22;24866;50.248;8.252;2023-04-24T05:06:49;8.10;99.90
37408;DHT22;24866;50.248;8.252;2023-04-24T05:09:22;8.10;99.90
37408;DHT22;24866;50.248;8.252;2023-04-24T05:11:51;8.10;99.90
37408;DHT22;24866;50.248;8.252;2023-04-24T05:14:21;8.10;99.90
37408;DHT22;24866;50.248;8.252;2023-04-24T05:16:51;8.20;99.90
37408;DHT22;24866;50.248;8.252;2023-04-24T05:19:21;8.30;99.90
37408;DHT22;24866;50.248;8.252;2023-04-24T05:21:51;8.20;99.90
37408;DHT22;24866;50.248;8.252;2023-04-24T05:24:23;8.20;99.90
37408;DHT22;24866;50.248;8.252;2023-04-24T05:26:52;8.20;99.90
37408;DHT22;24866;50.248;8.252;2023-04-24T05:29:22;8.20;99.90
37408;DHT22;24866;50.248;8.252;2023-04-24T05:31:53;8.30;99.90
37408;DHT22;24866;50.248;8.252;2023-04-24T05:34:23;8.30;99.90
37408;DHT22;24866;50.248;8.252;2023-04-24T05:36:53;8.30;99.90
37408;DHT22;24866;50.248;8.252;2023-04-24T05:39:24;8.40;99.90
37408;DHT22;24866;50.248;8.252;2023-04-24T05:41:54;8.60;99.90
37408;DHT22;24866;50.248;8.252;2023-04-24T05:44:26;8.70;99.90
37408;DHT22;24866;50.248;8.252;2023-04-24T05:46:56;8.80;99.90
37408;DHT22;24866;50.248;8.252;2023-04-24T05:49:26;8.60;99.90
37408;DHT22;24866;50.248;8.252;2023-04-24T05:51:57;8.50;99.90
37408;DHT22;24866;50.248;8.252;2023-04-24T05:54:28;8.30;99.90
37408;DHT22;24866;50.248;8.252;2023-04-24T05:56:58;8.40;99.90
37408;DHT22;24866;50.248;8.252;2023-04-24T05:59:30;8.40;99.90
37408;DHT22;24866;50.248;8.252;2023-04-24T06:01:59;8.40;99.90
37408;DHT22;24866;50.248;8.252;2023-04-24T06:04:29;8.50;99.90
37408;DHT22;24866;50.248;8.252;2023-04-24T06:06:59;8.50;99.90
37408;DHT22;24866;50.248;8.252;2023-04-24T06:09:31;8.60;99.90
37408;DHT22;24866;50.248;8.252;2023-04-24T06:12:00;8.60;99.90
37408;DHT22;24866;50.248;8.252;2023-04-24T06:14:31;8.60;99.90
37408;DHT22;24866;50.248;8.252;2023-04-24T06:17:00;8.70;99.90
37408;DHT22;24866;50.248;8.252;2023-04-24T06:19:30;8.60;99.90
37408;DHT22;24866;50.248;8.252;2023-04-24T06:22:00;8.60;99.90
37408;DHT22;24866;50.248;8.252;2023-04-24T06:24:31;8.50;99.90
37408;DHT22;24866;50.248;8.252;2023-04-24T06:27:03;8.60;99.90
37408;DHT22;24866;50.248;8.252;2023-04-24T06:29:33;8.90;99.90
37408;DHT22;24866;50.248;8.252;2023-04-24T06:32:03;8.80;99.90
37408;DHT22;24866;50.248;8.252;2023-04-24T06:34:33;8.80;99.90
37408;DHT22;24866;50.248;8.252;2023-04-24T06:37:04;8.70;99.90
37408;DHT22;24866;50.248;8.252;2023-04-24T06:39:35;8.80;99.90
37408;DHT22;24866;50.248;8.252;2023-04-24T06:42:05;8.80;99.90
37408;DHT22;24866;50.248;8.252;2023-04-24T06:44:36;9.00;99.90
37408;DHT22;24866;50.248;8.252;2023-04-24T06:47:09;8.90;99.90
37408;DHT22;24866;50.248;8.252;2023-04-24T06:49:39;9.00;99.90
37408;DHT22;24866;50.248;8.252;2023-04-24T06:52:09;9.00;99.90
37408;DHT22;24866;50.248;8.252;2023-04-24T06:54:41;9.00;99.90
37408;DHT22;24866;50.248;8.252;2023-04-24T06:57:11;9.00;99.90
37408;DHT22;24866;50.248;8.252;2023-04-24T06:59:41;9.00;99.90
37408;DHT22;24866;50.248;8.252;2023-04-24T07:02:12;9.10;99.90
37408;DHT22;24866;50.248;8.252;2023-04-24T07:04:41;9.20;99.90
37408;DHT22;24866;50.248;8.252;2023-04-24T07:07:12;9.10;99.90
37408;DHT22;24866;50.248;8.252;2023-04-24T07:09:44;9.20;99.90
37408;DHT22;24866;50.248;8.252;2023-04-24T07:12:14;9.30;99.90
37408;DHT22;24866;50.248;8.252;2023-04-24T07:14:47;9.30;99.90
37408;DHT22;24866;50.248;8.252;2023-04-24T07:17:17;9.50;99.90
37408;DHT22;24866;50.248;8.252;2023-04-24T07:19:47;9.50;99.90
37408;DHT22;24866;50.248;8.252;2023-04-24T07:22:17;9.50;99.90
37408;DHT22;24866;50.248;8.252;2023-04-24T07:24:48;9.50;99.90
37408;DHT22;24866;50.248;8.252;2023-04-24T07:27:18;9.50;99.90
37408;DHT22;24866;50.248;8.252;2023-04-24T07:29:49;9.60;99.90
37408;DHT22;24866;50.248;8.252;2023-04-24T07:32:18;9.70;99.90
37408;DHT22;24866;50.248;8.252;2023-04-24T07:34:48;10.00;99.90
37408;DHT22;24866;50.248;8.252;2023-04-24T07:37:18;9.90;99.90
37408;DHT22;24866;50.248;8.252;2023-04-24T07:39:50;9.90;99.90
37408;DHT22;24866;50.248;8.252;2023-04-24T07:42:20;10.10;99.90
37408;DHT22;24866;50.248;8.252;2023-04-24T07:44:50;9.80;99.90
37408;DHT22;24866;50.248;8.252;2023-04-24T07:47:20;9.90;99.90
37408;DHT22;24866;50.248;8.252;2023-04-24T07:49:49;10.40;99.90
37408;DHT22;24866;50.248;8.252;2023-04-24T07:52:19;10.20;99.90
37408;DHT22;24866;50.248;8.252;2023-04-24T07:54:51;10.00;99.90
37408;DHT22;24866;50.248;8.252;2023-04-24T07:57:26;10.00;99.90
37408;DHT22;24866;50.248;8.252;2023-04-24T07:59:56;9.90;99.90
37408;DHT22;24866;50.248;8.252;2023-04-24T08:02:26;9.90;99.90
37408;DHT22;24866;50.248;8.252;2023-04-24T08:04:56;9.90;99.90
37408;DHT22;24866;50.248;8.252;2023-04-24T08:07:26;10.10;99.90
37408;DHT22;24866;50.248;8.252;2023-04-24T08:09:58;10.00;99.90
37408;DHT22;24866;50.248;8.252;2023-04-24T08:12:29;10.00;99.90
37408;DHT22;24866;50.248;8.252;2023-04-24T08:14:59;9.90;99.90
37408;DHT22;24866;50.248;8.252;2023-04-24T08:17:28;9.80;99.90
37408;DHT22;24866;50.248;8.252;2023-04-24T08:19:58;9.80;99.90
37408;DHT22;24866;50.248;8.252;2023-04-24T08:22:30;9.80;99.90
37408;DHT22;24866;50.248;8.252;2023-04-24T08:25:01;9.70;99.90
37408;DHT22;24866;50.248;8.252;2023-04-24T08:27:31;9.60;99.90
37408;DHT22;24866;50.248;8.252;2023-04-24T08:30:02;9.70;99.90
37408;DHT22;24866;50.248;8.252;2023-04-24T08:32:32;9.70;99.90
37408;DHT22;24866;50.248;8.252;2023-04-24T08:35:02;9.70;99.90
37408;DHT22;24866;50.248;8.252;2023-04-24T08:37:32;9.70;99.90
37408;DHT22;24866;50.248;8.252;2023-04-24T08:40:06;9.70;99.90
37408;DHT22;24866;50.248;8.252;2023-04-24T08:42:39;9.80;99.90
37408;DHT22;24866;50.248;8.252;2023-04-24T08:45:12;9.90;99.90
37408;DHT22;24866;50.248;8.252;2023-04-24T08:47:42;10.00;99.90
37408;DHT22;24866;50.248;8.252;2023-04-24T08:50:12;10.10;99.90
37408;DHT22;24866;50.248;8.252;2023-04-24T08:52:43;10.00;99.90
37408;DHT22;24866;50.248;8.252;2023-04-24T08:55:15;9.90;99.90
37408;DHT22;24866;50.248;8.252;2023-04-24T08:57:50;9.90;99.90
37408;DHT22;24866;50.248;8.252;2023-04-24T09:00:21;10.00;99.90
37408;DHT22;24866;50.248;8.252;2023-04-24T09:02:55;9.90;99.90
37408;DHT22;24866;50.248;8.252;2023-04-24T09:05:25;10.00;99.90
37408;DHT22;24866;50.248;8.252;2023-04-24T09:07:57;9.90;99.90
37408;DHT22;24866;50.248;8.252;2023-04-24T09:10:29;9.90;99.90
37408;DHT22;24866;50.248;8.252;2023-04-24T09:12:59;10.00;99.90
37408;DHT22;24866;50.248;8.252;2023-04-24T09:15:31;9.90;99.90
37408;DHT22;24866;50.248;8.252;2023-04-24T09:18:01;9.90;99.90
37408;DHT22;24866;50.248;8.252;2023-04-24T09:20:31;9.80;99.90
37408;DHT22;24866;50.248;8.252;2023-04-24T09:23:01;9.80;99.90
37408;DHT22;24866;50.248;8.252;2023-04-24T09:25:34;9.90;99.90
37408;DHT22;24866;50.248;8.252;2023-04-24T09:28:05;9.80;99.90
37408;DHT22;24866;50.248;8.252;2023-04-24T09:30:35;9.80;99.90
37408;DHT22;24866;50.248;8.252;2023-04-24T09:33:13;9.80;99.90
37408;DHT22;24866;50.248;8.252;2023-04-24T09:35:50;9.80;99.90
37408;DHT22;24866;50.248;8.252;2023-04-24T09:38:30;9.90;99.90
37408;DHT22;24866;50.248;8.252;2023-04-24T09:41:04;10.00;99.90
37408;DHT22;24866;50.248;8.252;2023-04-24T09:43:35;10.00;99.90
37408;DHT22;24866;50.248;8.252;2023-04-24T09:46:07;10.20;99.90
37408;DHT22;24866;50.248;8.252;2023-04-24T09:48:38;10.10;99.90
37408;DHT22;24866;50.248;8.252;2023-04-24T09:51:08;9.80;99.90
37408;DHT22;24866;50.248;8.252;2023-04-24T09:53:39;9.60;99.90
37408;DHT22;24866;50.248;8.252;2023-04-24T09:56:11;9.60;99.90
37408;DHT22;24866;50.248;8.252;2023-04-24T09:58:42;9.60;99.90
37408;DHT22;24866;50.248;8.252;2023-04-24T10:01:12;9.60;99.90
37408;DHT22;24866;50.248;8.252;2023-04-24T10:03:42;9.70;99.90
37408;DHT22;24866;50.248;8.252;2023-04-24T10:06:13;9.70;99.90
37408;DHT22;24866;50.248;8.252;2023-04-24T10:08:44;9.60;99.90
37408;DHT22;24866;50.248;8.252;2023-04-24T10:11:16;9.70;99.90
37408;DHT22;24866;50.248;8.252;2023-04-24T10:13:46;9.70;99.90
37408;DHT22;24866;50.248;8.252;2023-04-24T10:16:17;9.90;99.90
37408;DHT22;24866;50.248;8.252;2023-04-24T10:18:48;10.10;99.90
37408;DHT22;24866;50.248;8.252;2023-04-24T10:21:18;10.00;99.90
37408;DHT22;24866;50.248;8.252;2023-04-24T10:23:48;10.20;99.90
37408;DHT22;24866;50.248;8.252;2023-04-24T10:26:20;10.30;99.90
37408;DHT22;24866;50.248;8.252;2023-04-24T10:28:51;10.40;99.90
37408;DHT22;24866;50.248;8.252;2023-04-24T10:31:22;10.40;99.90
37408;DHT22;24866;50.248;8.252;2023-04-24T10:33:53;10.50;99.90
37408;DHT22;24866;50.248;8.252;2023-04-24T10:36:24;10.40;99.90
37408;DHT22;24866;50.248;8.252;2023-04-24T10:38:57;10.40;99.90
37408;DHT22;24866;50.248;8.252;2023-04-24T10:41:29;10.40;99.90
37408;DHT22;24866;50.248;8.252;2023-04-24T10:44:06;10.60;99.90
37408;DHT22;24866;50.248;8.252;2023-04-24T10:46:37;10.20;99.90
37408;DHT22;24866;50.248;8.252;2023-04-24T10:49:08;10.00;99.90
37408;DHT22;24866;50.248;8.252;2023-04-24T10:51:49;10.10;99.90
37408;DHT22;24866;50.248;8.252;2023-04-24T10:54:24;10.00;99.90
37408;DHT22;24866;50.248;8.252;2023-04-24T10:57:27;10.10;99.90
37408;DHT22;24866;50.248;8.252;2023-04-24T11:00:14;10.10;99.90
37408;DHT22;24866;50.248;8.252;2023-04-24T11:02:46;10.20;99.90
37408;DHT22;24866;50.248;8.252;2023-04-24T11:05:19;10.20;99.90
37408;DHT22;24866;50.248;8.252;2023-04-24T11:08:12;10.10;99.90
37408;DHT22;24866;50.248;8.252;2023-04-24T11:10:46;10.10;99.90
37408;DHT22;24866;50.248;8.252;2023-04-24T11:13:22;10.10;99.90
37408;DHT22;24866;50.248;8.252;2023-04-24T11:16:15;10.10;99.90
37408;DHT22;24866;50.248;8.252;2023-04-24T11:18:45;10.10;99.90
37408;DHT22;24866;50.248;8.252;2023-04-24T11:21:19;10.20;99.90
37408;DHT22;24866;50.248;8.252;2023-04-24T11:23:49;10.30;99.90
37408;DHT22;24866;50.248;8.252;2023-04-24T11:26:21;10.50;99.90
37408;DHT22;24866;50.248;8.252;2023-04-24T11:29:06;10.70;99.90
37408;DHT22;24866;50.248;8.252;2023-04-24T11:31:38;11.10;99.90
37408;DHT22;24866;50.248;8.252;2023-04-24T11:34:11;11.40;99.90
37408;DHT22;24866;50.248;8.252;2023-04-24T11:36:43;11.10;99.90
37408;DHT22;24866;50.248;8.252;2023-04-24T11:39:14;10.80;99.90
37408;DHT22;24866;50.248;8.252;2023-04-24T11:41:44;10.60;99.90
37408;DHT22;24866;50.248;8.252;2023-04-24T11:44:20;10.90;99.90
37408;DHT22;24866;50.248;8.252;2023-04-24T11:46:51;11.20;99.90
37408;DHT22;24866;50.248;8.252;2023-04-24T11:49:21;10.70;99.90
37408;DHT22;24866;50.248;8.252;2023-04-24T11:51:55;10.80;99.90
37408;DHT22;24866;50.248;8.252;2023-04-24T11:54:25;10.70;99.90
37408;DHT22;24866;50.248;8.252;2023-04-24T11:56:56;10.40;99.90
37408;DHT22;24866;50.248;8.252;2023-04-24T11:59:28;10.80;99.90
37408;DHT22;24866;50.248;8.252;2023-04-24T12:01:57;10.90;99.90
37408;DHT22;24866;50.248;8.252;2023-04-24T12:04:38;10.80;99.90
37408;DHT22;24866;50.248;8.252;2023-04-24T12:07:09;11.20;99.90
37408;DHT22;24866;50.248;8.252;2023-04-24T12:09:43;11.90;99.90
37408;DHT22;24866;50.248;8.252;2023-04-24T12:12:15;12.00;99.90
37408;DHT22;24866;50.248;8.252;2023-04-24T12:14:49;12.00;99.90
37408;DHT22;24866;50.248;8.252;2023-04-24T12:17:24;11.80;99.90
37408;DHT22;24866;50.248;8.252;2023-04-24T12:19:58;12.10;99.90
37408;DHT22;24866;50.248;8.252;2023-04-24T12:22:43;11.50;99.90
37408;DHT22;24866;50.248;8.252;2023-04-24T12:25:15;11.30;99.90
37408;DHT22;24866;50.248;8.252;2023-04-24T12:27:46;12.10;99.90
37408;DHT22;24866;50.248;8.252;2023-04-24T12:30:18;12.10;99.90
37408;DHT22;24866;50.248;8.252;2023-04-24T12:32:49;11.90;99.90
37408;DHT22;24866;50.248;8.252;2023-04-24T12:35:21;11.60;99.90
37408;DHT22;24866;50.248;8.252;2023-04-24T12:37:51;11.50;99.90
37408;DHT22;24866;50.248;8.252;2023-04-24T12:40:26;11.60;99.90
37408;DHT22;24866;50.248;8.252;2023-04-24T12:42:57;11.70;99.90
37408;DHT22;24866;50.248;8.252;2023-04-24T12:45:29;11.70;99.90
37408;DHT22;24866;50.248;8.252;2023-04-24T12:47:59;11.60;99.90
37408;DHT22;24866;50.248;8.252;2023-04-24T12:50:38;11.70;99.90
37408;DHT22;24866;50.248;8.252;2023-04-24T12:53:08;11.80;99.90
37408;DHT22;24866;50.248;8.252;2023-04-24T12:55:39;11.70;99.90
37408;DHT22;24866;50.248;8.252;2023-04-24T12:58:09;11.40;99.90
37408;DHT22;24866;50.248;8.252;2023-04-24T13:00:39;11.40;99.90
37408;DHT22;24866;50.248;8.252;2023-04-24T13:03:12;11.40;99.90
37408;DHT22;24866;50.248;8.252;2023-04-24T13:05:43;11.40;99.90
37408;DHT22;24866;50.248;8.252;2023-04-24T13:08:14;11.00;99.90
37408;DHT22;24866;50.248;8.252;2023-04-24T13:10:44;9.80;99.90
37408;DHT22;24866;50.248;8.252;2023-04-24T13:13:14;9.20;99.90
37408;DHT22;24866;50.248;8.252;2023-04-24T13:15:45;9.70;99.90
37408;DHT22;24866;50.248;8.252;2023-04-24T13:18:15;10.30;99.90
37408;DHT22;24866;50.248;8.252;2023-04-24T13:20:46;10.60;99.90
37408;DHT22;24866;50.248;8.252;2023-04-24T13:23:17;11.10;99.90
37408;DHT22;24866;50.248;8.252;2023-04-24T13:25:47;11.00;99.90
37408;DHT22;24866;50.248;8.252;2023-04-24T13:28:18;10.90;99.90
37408;DHT22;24866;50.248;8.252;2023-04-24T13:30:48;11.10;99.90
37408;DHT22;24866;50.248;8.252;2023-04-24T13:33:18;11.10;99.90
37408;DHT22;24866;50.248;8.252;2023-04-24T13:35:50;11.40;99.90
37408;DHT22;24866;50.248;8.252;2023-04-24T13:38:20;11.60;99.90
37408;DHT22;24866;50.248;8.252;2023-04-24T13:40:51;11.40;99.90
37408;DHT22;24866;50.248;8.252;2023-04-24T13:43:21;11.70;99.90
37408;DHT22;24866;50.248;8.252;2023-04-24T13:45:51;12.00;99.90
37408;DHT22;24866;50.248;8.252;2023-04-24T13:48:21;12.20;99.90
37408;DHT22;24866;50.248;8.252;2023-04-24T13:50:53;12.40;99.90
37408;DHT22;24866;50.248;8.252;2023-04-24T13:53:23;12.20;99.90
37408;DHT22;24866;50.248;8.252;2023-04-24T13:55:54;12.00;99.90
37408;DHT22;24866;50.248;8.252;2023-04-24T13:58:25;12.10;99.90
37408;DHT22;24866;50.248;8.252;2023-04-24T14:00:55;12.00;99.90
37408;DHT22;24866;50.248;8.252;2023-04-24T14:03:25;12.10;99.90
37408;DHT22;24866;50.248;8.252;2023-04-24T14:05:57;12.10;99.90
37408;DHT22;24866;50.248;8.252;2023-04-24T14:08:28;11.90;99.90
37408;DHT22;24866;50.248;8.252;2023-04-24T14:10:59;11.70;99.90
37408;DHT22;24866;50.248;8.252;2023-04-24T14:13:29;11.70;99.90
37408;DHT22;24866;50.248;8.252;2023-04-24T14:16:00;11.60;99.90
37408;DHT22;24866;50.248;8.252;2023-04-24T14:18:30;11.50;99.90
37408;DHT22;24866;50.248;8.252;2023-04-24T14:21:02;11.40;99.90
37408;DHT22;24866;50.248;8.252;2023-04-24T14:23:33;11.40;99.90
37408;DHT22;24866;50.248;8.252;2023-04-24T14:26:03;11.40;99.90
37408;DHT22;24866;50.248;8.252;2023-04-24T14:28:35;11.60;99.90
37408;DHT22;24866;50.248;8.252;2023-04-24T14:31:05;11.50;99.90
37408;DHT22;24866;50.248;8.252;2023-04-24T14:33:36;11.50;99.90
37408;DHT22;24866;50.248;8.252;2023-04-24T14:36:07;11.50;99.90
37408;DHT22;24866;50.248;8.252;2023-04-24T14:38:37;11.60;99.90
37408;DHT22;24866;50.248;8.252;2023-04-24T14:41:07;11.80;99.90
37408;DHT22;24866;50.248;8.252;2023-04-24T14:43:40;11.60;99.90
37408;DHT22;24866;50.248;8.252;2023-04-24T14:46:10;11.70;99.90
37408;DHT22;24866;50.248;8.252;2023-04-24T14:48:40;11.70;99.90
37408;DHT22;24866;50.248;8.252;2023-04-24T14:51:11;11.70;99.90
37408;DHT22;24866;50.248;8.252;2023-04-24T14:53:41;11.50;46.10
37408;DHT22;24866;50.248;8.252;2023-04-24T14:56:11;11.50;84.00
37408;DHT22;24866;50.248;8.252;2023-04-24T14:58:42;11.70;99.90
37408;DHT22;24866;50.248;8.252;2023-04-24T15:01:12;11.60;1.00
37408;DHT22;24866;50.248;8.252;2023-04-24T15:03:42;11.60;99.90
37408;DHT22;24866;50.248;8.252;2023-04-24T15:06:15;11.60;99.90
37408;DHT22;24866;50.248;8.252;2023-04-24T15:08:45;11.50;1.00
37408;DHT22;24866;50.248;8.252;2023-04-24T15:11:15;11.60;1.00
37408;DHT22;24866;50.248;8.252;2023-04-24T15:13:45;11.40;1.00
37408;DHT22;24866;50.248;8.252;2023-04-24T15:16:15;11.30;99.90
37408;DHT22;24866;50.248;8.252;2023-04-24T15:18:47;11.30;1.00
37408;DHT22;24866;50.248;8.252;2023-04-24T15:21:18;11.20;1.00
37408;DHT22;24866;50.248;8.252;2023-04-24T15:23:49;11.20;1.00
37408;DHT22;24866;50.248;8.252;2023-04-24T15:26:19;11.30;1.00
37408;DHT22;24866;50.248;8.252;2023-04-24T15:28:50;11.40;1.00
37408;DHT22;24866;50.248;8.252;2023-04-24T15:31:20;11.50;99.90
37408;DHT22;24866;50.248;8.252;2023-04-24T15:33:53;11.60;99.90
37408;DHT22;24866;50.248;8.252;2023-04-24T15:36:25;12.30;1.00
37408;DHT22;24866;50.248;8.252;2023-04-24T15:38:56;12.90;99.90
37408;DHT22;24866;50.248;8.252;2023-04-24T15:41:26;12.60;1.00
37408;DHT22;24866;50.248;8.252;2023-04-24T15:43:56;13.00;1.00
37408;DHT22;24866;50.248;8.252;2023-04-24T15:46:26;12.90;99.90
37408;DHT22;24866;50.248;8.252;2023-04-24T15:48:56;12.50;1.00
37408;DHT22;24866;50.248;8.252;2023-04-24T15:51:28;12.50;1.00
37408;DHT22;24866;50.248;8.252;2023-04-24T15:53:59;12.30;99.90
37408;DHT22;24866;50.248;8.252;2023-04-24T15:56:29;12.20;99.90
37408;DHT22;24866;50.248;8.252;2023-04-24T15:58:59;12.00;99.90
37408;DHT22;24866;50.248;8.252;2023-04-24T16:01:30;11.90;99.90
37408;DHT22;24866;50.248;8.252;2023-04-24T16:04:01;11.80;99.90